Aérodrome :
LOGIN :

S'inscrire | Disclaimer

   EN    FR    IT 

 










Légende :    VFR   VFR Marginal   IFR   IFR Intensif   IFR Très Intensif
Visi : 
Plafond : 
>= 8 km
>= 3000ft
5 à 8 km
1000 à 3000 ft
1500m à 5 km
500 à 1000 ft
800 à 1500m
200 à 500 ft
< 800m
< 200 ft
Symboles :   Orages  Brouillard  Fortes neiges  Fortes précipitations  Vent > 20 kt
SIGMETs :   Divers  Orages  Givrage  Turbulence  Onde Orograph.  Cendres Volcan.






- Altitude de l'aérodrome : 464 ft
- Code IATA : EVX


LFOE - Evreux

DERNIER METAR :
  • 221330Z AUTO 11004KT 060V180 CAVOK 23/12 Q1013 NOSIG

METARs EXPIRÉS :
  • 221300Z AUTO 10007KT 050V150 CAVOK 22/12 Q1013 NOSIG
  • 221230Z AUTO VRB05KT 9999 FEW036 22/13 Q1013 TEMPO 4000 -SHRA BKN060CB
  • 221200Z AUTO 10008KT 060V140 CAVOK 22/13 Q1013 TEMPO 4000 -SHRA BKN060CB
  • 221130Z AUTO 11008KT 070V140 9999 ///TCU 21/14 Q1013 TEMPO 4000 -SHRA BKN060CB
  • 221100Z AUTO 11005KT 050V140 CAVOK 20/13 Q1014 TEMPO 4000 -SHRA BKN060CB

TAF AMD TAF LFOE
Valide du 22 à 12h jusqu'au 23 à 09h UTC


221244Z 2212/2309 06010KT CAVOK
TEMPO 2221/2304 VRB15G25KT 3000 TSRA BKN020 BKN060CB
TEMPO 2304/2309 4000 SHRA BKN010 BKN025CB



MET'MAP, la Météo Aéronautique d'un coup d'oeil ! - Copyright ORBIFLY Décembre 2007 - Disclaimer

ORBIFLY MET'MAP TEAM :

Programmation & Développement : Alexandra Zaïnal
Sur une idée originale de : Baudouin d'Aumeries
Soutien technique & logistique : Manuel Goepfert
Assistance : Marc-Olivier Méhu

Contact : metmap@orbifly.com




SOURCES & CREDITS :

   NOAA